createdAt,value
2018-07-09T00:00:58.960Z,1.70
2018-07-09T00:03:27.242Z,1.90
2018-07-09T00:05:55.520Z,1.80
2018-07-09T00:08:23.891Z,2.27
2018-07-09T00:10:53.845Z,1.60
2018-07-09T00:13:22.727Z,1.70
2018-07-09T00:15:50.993Z,1.37
2018-07-09T00:18:19.277Z,1.80
2018-07-09T00:20:47.589Z,1.67
2018-07-09T00:23:16.301Z,1.50
2018-07-09T00:25:45.473Z,1.83
2018-07-09T00:28:13.806Z,1.70
2018-07-09T00:30:42.094Z,2.03
2018-07-09T00:33:10.382Z,1.60
2018-07-09T00:35:38.702Z,1.80
2018-07-09T00:38:06.997Z,1.60
2018-07-09T00:40:35.312Z,2.03
2018-07-09T00:43:03.609Z,1.77
2018-07-09T00:45:31.911Z,1.90
2018-07-09T00:48:00.197Z,1.20
2018-07-09T00:50:28.497Z,1.60
2018-07-09T00:52:56.790Z,1.70
2018-07-09T00:55:25.132Z,2.00
2018-07-09T00:57:53.418Z,2.00
2018-07-09T01:00:21.738Z,1.80
2018-07-09T01:02:49.997Z,1.73
2018-07-09T01:05:18.303Z,1.63
2018-07-09T01:07:46.588Z,1.60
2018-07-09T01:10:16.025Z,1.67
2018-07-09T01:12:44.315Z,2.43
2018-07-09T01:15:12.678Z,1.90
2018-07-09T01:17:41.050Z,2.00
2018-07-09T01:20:09.377Z,1.97
2018-07-09T01:22:37.688Z,1.87
2018-07-09T01:25:06.264Z,1.63
2018-07-09T01:27:34.610Z,1.37
2018-07-09T01:30:04.976Z,1.83
2018-07-09T01:32:33.381Z,1.57
2018-07-09T01:35:01.691Z,1.80
2018-07-09T01:37:29.958Z,1.57
2018-07-09T01:39:58.277Z,1.70
2018-07-09T01:42:26.573Z,1.80
2018-07-09T01:44:54.901Z,1.80
2018-07-09T01:47:23.189Z,1.83
2018-07-09T01:49:51.701Z,2.10
2018-07-09T01:52:20.010Z,1.43
2018-07-09T01:54:48.334Z,1.90
2018-07-09T01:57:16.595Z,2.20
2018-07-09T01:59:44.873Z,2.00
2018-07-09T02:02:13.176Z,2.27
2018-07-09T02:04:41.452Z,1.87
2018-07-09T02:07:09.768Z,1.83
2018-07-09T02:09:38.042Z,2.27
2018-07-09T02:12:06.358Z,2.03
2018-07-09T02:14:34.634Z,2.00
2018-07-09T02:17:02.920Z,2.23
2018-07-09T02:19:31.193Z,1.93
2018-07-09T02:21:59.496Z,1.50
2018-07-09T02:24:27.757Z,2.20
2018-07-09T02:26:56.061Z,2.17
2018-07-09T02:29:24.324Z,2.07
2018-07-09T02:31:52.633Z,1.50
2018-07-09T02:34:20.924Z,1.90
2018-07-09T02:36:49.234Z,2.33
2018-07-09T02:39:17.518Z,2.20
2018-07-09T02:41:45.829Z,1.83
2018-07-09T02:44:14.185Z,1.80
2018-07-09T02:46:42.502Z,1.87
2018-07-09T02:49:10.849Z,2.37
2018-07-09T02:51:39.094Z,2.13
2018-07-09T02:54:07.355Z,1.90
2018-07-09T02:56:35.692Z,2.17
2018-07-09T02:59:03.994Z,2.20
2018-07-09T03:01:32.301Z,1.80
2018-07-09T03:04:00.573Z,1.83
2018-07-09T03:06:28.953Z,2.27
2018-07-09T03:08:57.243Z,2.40
2018-07-09T03:11:25.547Z,1.90
2018-07-09T03:13:53.866Z,2.63
2018-07-09T03:16:22.149Z,2.03
2018-07-09T03:18:50.418Z,1.90
2018-07-09T03:21:18.718Z,2.03
2018-07-09T03:23:47.166Z,2.37
2018-07-09T03:26:16.064Z,2.40
2018-07-09T03:28:44.342Z,2.07
2018-07-09T03:31:12.637Z,1.90
2018-07-09T03:33:42.816Z,1.77
2018-07-09T03:36:11.106Z,2.20
2018-07-09T03:38:39.398Z,1.90
2018-07-09T03:41:07.714Z,2.70
2018-07-09T03:43:36.058Z,2.50
2018-07-09T03:46:05.319Z,2.07
2018-07-09T03:48:35.468Z,2.50
2018-07-09T03:51:07.366Z,2.17
2018-07-09T03:53:36.822Z,4.13
2018-07-09T03:56:05.349Z,2.67
2018-07-09T03:58:33.638Z,3.80
2018-07-09T04:01:01.923Z,2.77
2018-07-09T04:03:30.232Z,4.77
2018-07-09T04:05:58.589Z,5.07
2018-07-09T04:08:26.903Z,5.80
2018-07-09T04:10:55.202Z,7.83
2018-07-09T04:13:24.410Z,2.70
2018-07-09T04:15:52.677Z,8.00
2018-07-09T04:18:23.645Z,8.13
2018-07-09T04:20:52.881Z,8.40
2018-07-09T04:23:21.176Z,6.57
2018-07-09T04:25:49.471Z,9.80
2018-07-09T04:28:17.777Z,6.80
2018-07-09T04:30:46.320Z,4.30
2018-07-09T04:33:14.665Z,15.30
2018-07-09T04:35:42.965Z,7.57
2018-07-09T04:38:11.294Z,9.00
2018-07-09T04:40:39.570Z,6.40
2018-07-09T04:43:07.918Z,11.97
2018-07-09T04:45:36.199Z,11.77
2018-07-09T04:48:04.507Z,4.80
2018-07-09T04:50:32.772Z,6.80
2018-07-09T04:53:01.080Z,4.87
2018-07-09T04:55:29.434Z,5.37
2018-07-09T04:57:57.714Z,4.40
2018-07-09T05:00:25.978Z,5.20
2018-07-09T05:02:54.265Z,4.53
2018-07-09T05:05:22.578Z,3.10
2018-07-09T05:07:51.021Z,3.50
2018-07-09T05:10:19.328Z,2.80
2018-07-09T05:12:47.638Z,2.50
2018-07-09T05:15:15.913Z,2.70
2018-07-09T05:17:44.222Z,2.03
2018-07-09T05:20:12.518Z,2.40
2018-07-09T05:22:40.782Z,2.67
2018-07-09T05:25:09.122Z,2.20
2018-07-09T05:27:37.504Z,2.17
2018-07-09T05:30:05.858Z,2.27
2018-07-09T05:32:34.165Z,2.27
2018-07-09T05:35:02.500Z,2.60
2018-07-09T05:37:30.783Z,2.37
2018-07-09T05:39:59.130Z,2.10
2018-07-09T05:42:27.510Z,2.60
2018-07-09T05:44:55.831Z,1.73
2018-07-09T05:47:24.128Z,2.40
2018-07-09T05:49:52.749Z,2.50
2018-07-09T05:52:21.069Z,2.37
2018-07-09T05:54:50.221Z,2.10
2018-07-09T05:57:18.506Z,1.83
2018-07-09T05:59:46.814Z,1.70
2018-07-09T06:02:15.253Z,1.90
2018-07-09T06:04:43.577Z,2.60
2018-07-09T06:07:11.877Z,1.80
2018-07-09T06:09:40.184Z,1.57
2018-07-09T06:12:08.623Z,2.10
2018-07-09T06:14:36.978Z,1.97
2018-07-09T06:17:05.807Z,1.90
2018-07-09T06:19:34.381Z,2.00
2018-07-09T06:22:02.694Z,2.23
2018-07-09T06:24:31.017Z,2.20
2018-07-09T06:26:59.329Z,2.50
2018-07-09T06:29:27.629Z,2.10
2018-07-09T06:31:55.937Z,1.40
2018-07-09T06:34:24.453Z,2.30
2018-07-09T06:36:53.366Z,1.43
2018-07-09T06:39:37.234Z,2.53
2018-07-09T06:42:10.197Z,1.17
2018-07-09T06:44:40.618Z,1.40
2018-07-09T06:47:10.150Z,1.40
2018-07-09T06:49:39.042Z,3.00
2018-07-09T06:52:07.397Z,1.27
2018-07-09T06:54:35.737Z,1.53
2018-07-09T06:57:04.018Z,1.67
2018-07-09T06:59:32.317Z,1.30
2018-07-09T07:02:00.644Z,1.40
2018-07-09T07:04:28.921Z,1.27
2018-07-09T07:06:57.251Z,2.00
2018-07-09T07:09:25.552Z,1.70
2018-07-09T07:11:53.999Z,1.33
2018-07-09T07:14:22.325Z,1.77
2018-07-09T07:16:50.617Z,1.37
2018-07-09T07:19:18.933Z,1.53
2018-07-09T07:21:47.233Z,1.37
2018-07-09T07:24:15.546Z,1.30
2018-07-09T07:26:43.855Z,2.10
2018-07-09T07:29:12.169Z,2.10
2018-07-09T07:31:40.481Z,1.80
2018-07-09T07:34:08.773Z,1.70
2018-07-09T07:36:37.087Z,1.67
2018-07-09T07:39:05.682Z,1.63
2018-07-09T07:41:34.020Z,1.60
2018-07-09T07:44:02.334Z,1.90
2018-07-09T07:46:30.706Z,1.63
2018-07-09T07:48:59.001Z,1.70
2018-07-09T07:51:27.302Z,1.10
2018-07-09T07:53:55.605Z,1.43
2018-07-09T07:56:23.963Z,1.10
2018-07-09T07:58:52.273Z,1.90
2018-07-09T08:01:20.844Z,1.63
2018-07-09T08:03:49.137Z,1.33
2018-07-09T08:06:17.438Z,1.17
2018-07-09T08:08:45.749Z,1.40
2018-07-09T08:11:14.080Z,1.63
2018-07-09T08:13:42.412Z,1.40
2018-07-09T08:16:10.674Z,1.30
2018-07-09T08:18:38.990Z,1.43
2018-07-09T08:21:07.299Z,1.67
2018-07-09T08:23:35.593Z,1.13
2018-07-09T08:26:03.941Z,1.30
2018-07-09T08:28:32.254Z,1.33
2018-07-09T08:31:00.561Z,1.33
2018-07-09T08:33:28.854Z,1.17
2018-07-09T08:35:57.166Z,1.40
2018-07-09T08:38:25.481Z,1.70
2018-07-09T08:40:53.752Z,1.60
2018-07-09T08:43:22.648Z,1.50
2018-07-09T08:45:50.912Z,2.17
2018-07-09T08:48:19.251Z,1.73
2018-07-09T08:50:47.525Z,1.60
2018-07-09T08:53:15.813Z,1.47
2018-07-09T08:55:44.134Z,1.60
2018-07-09T08:58:12.476Z,2.87
2018-07-09T09:00:40.795Z,1.93
2018-07-09T09:03:09.082Z,1.50
2018-07-09T09:05:37.356Z,1.90
2018-07-09T09:08:05.709Z,1.70
2018-07-09T09:10:34.025Z,1.77
2018-07-09T09:13:02.325Z,1.77
2018-07-09T09:15:30.797Z,1.70
2018-07-09T09:17:59.113Z,1.90
2018-07-09T09:20:27.387Z,1.83
2018-07-09T09:22:55.678Z,2.37
2018-07-09T09:25:23.984Z,1.63
2018-07-09T09:27:52.296Z,3.63
2018-07-09T09:30:20.594Z,1.83
2018-07-09T09:32:48.929Z,1.60
2018-07-09T09:35:17.202Z,1.73
2018-07-09T09:37:45.514Z,1.90
2018-07-09T09:40:13.790Z,1.83
2018-07-09T09:42:42.128Z,1.57
2018-07-09T09:45:10.473Z,4.03
2018-07-09T09:47:38.776Z,2.00
2018-07-09T09:50:07.075Z,1.90
2018-07-09T09:52:35.340Z,1.83
2018-07-09T09:55:03.781Z,1.53
2018-07-09T09:57:32.089Z,1.97
2018-07-09T10:00:00.382Z,1.50
2018-07-09T10:02:28.663Z,2.40
2018-07-09T10:04:56.985Z,1.50
2018-07-09T10:07:25.270Z,1.87
2018-07-09T10:09:53.610Z,1.70
2018-07-09T10:12:21.890Z,2.40
2018-07-09T10:14:50.197Z,1.97
2018-07-09T10:17:18.486Z,2.00
2018-07-09T10:19:46.812Z,1.30
2018-07-09T10:22:15.107Z,2.10
2018-07-09T10:24:43.401Z,1.80
2018-07-09T10:27:11.710Z,2.43
2018-07-09T10:29:39.993Z,2.00
2018-07-09T10:32:08.317Z,2.33
2018-07-09T10:34:36.615Z,2.20
2018-07-09T10:37:04.954Z,1.67
2018-07-09T10:39:33.319Z,1.47
2018-07-09T10:42:01.565Z,2.10
2018-07-09T10:44:29.863Z,2.00
2018-07-09T10:46:58.150Z,2.30
2018-07-09T10:49:26.462Z,1.60
2018-07-09T10:51:54.745Z,2.10
2018-07-09T10:54:23.036Z,2.03
2018-07-09T10:56:51.391Z,4.50
2018-07-09T10:59:20.126Z,1.60
2018-07-09T11:01:48.415Z,1.90
2018-07-09T11:04:16.721Z,1.63
2018-07-09T11:06:45.013Z,1.40
2018-07-09T11:09:13.302Z,1.20
2018-07-09T11:11:41.575Z,1.77
2018-07-09T11:14:09.869Z,1.73
2018-07-09T11:16:38.273Z,2.00
2018-07-09T11:19:06.795Z,2.03
2018-07-09T11:21:35.176Z,1.77
2018-07-09T11:24:03.485Z,1.63
2018-07-09T11:26:32.590Z,1.93
2018-07-09T11:29:00.857Z,2.03
2018-07-09T11:31:29.173Z,1.30
2018-07-09T11:33:57.691Z,1.73
2018-07-09T11:36:26.048Z,1.90
2018-07-09T11:38:54.321Z,1.77
2018-07-09T11:41:22.621Z,1.30
2018-07-09T11:43:50.945Z,1.60
2018-07-09T11:46:19.261Z,1.67
2018-07-09T11:48:47.572Z,1.50
2018-07-09T11:51:15.879Z,1.43
2018-07-09T11:53:44.164Z,1.90
2018-07-09T11:56:12.522Z,1.87
2018-07-09T11:58:40.809Z,1.60
2018-07-09T12:01:09.118Z,1.40
2018-07-09T12:03:37.403Z,1.97
2018-07-09T12:06:05.803Z,1.47
2018-07-09T12:08:34.090Z,1.23
2018-07-09T12:11:02.402Z,1.90
2018-07-09T12:13:31.207Z,1.50
2018-07-09T12:16:00.716Z,2.37
2018-07-09T12:18:30.251Z,1.40
2018-07-09T12:20:58.593Z,2.10
2018-07-09T12:23:26.882Z,2.10
2018-07-09T12:25:55.194Z,2.27
2018-07-09T12:28:23.473Z,1.77
2018-07-09T12:30:51.770Z,1.80
2018-07-09T12:33:20.257Z,2.00
2018-07-09T12:35:48.654Z,1.90
2018-07-09T12:38:16.987Z,1.80
2018-07-09T12:40:45.298Z,2.00
2018-07-09T12:43:13.569Z,2.17
2018-07-09T12:45:41.878Z,1.60
2018-07-09T12:48:10.183Z,1.60
2018-07-09T12:50:38.466Z,2.00
2018-07-09T12:53:06.797Z,1.77
2018-07-09T12:55:35.097Z,1.63
2018-07-09T12:58:03.398Z,1.80
2018-07-09T13:00:31.781Z,1.50
2018-07-09T13:03:00.192Z,1.97
2018-07-09T13:05:29.274Z,1.30
2018-07-09T13:07:58.373Z,1.60
2018-07-09T13:10:26.641Z,2.10
2018-07-09T13:12:54.980Z,1.50
2018-07-09T13:15:23.270Z,1.63
2018-07-09T13:17:51.607Z,1.90
2018-07-09T13:20:19.914Z,1.90
2018-07-09T13:22:48.242Z,1.60
2018-07-09T13:25:16.526Z,1.77
2018-07-09T13:27:44.843Z,1.43
2018-07-09T13:30:13.122Z,1.53
2018-07-09T13:32:41.429Z,1.70
2018-07-09T13:35:09.709Z,1.90
2018-07-09T13:37:38.937Z,1.30
2018-07-09T13:40:07.215Z,1.77
2018-07-09T13:42:35.558Z,1.63
2018-07-09T13:45:03.890Z,2.07
2018-07-09T13:47:32.206Z,1.97
2018-07-09T13:50:00.583Z,1.60
2018-07-09T13:52:28.885Z,1.83
2018-07-09T13:54:57.193Z,1.70
2018-07-09T13:57:25.529Z,1.87
2018-07-09T13:59:53.817Z,2.27
2018-07-09T14:02:22.145Z,2.30
2018-07-09T14:04:50.452Z,2.10
2018-07-09T14:07:19.384Z,2.40
2018-07-09T14:09:48.027Z,1.97
2018-07-09T14:12:16.321Z,1.70
2018-07-09T14:14:44.627Z,1.90
2018-07-09T14:17:12.926Z,2.00
2018-07-09T14:20:13.000Z,1.60
2018-07-09T14:22:41.518Z,1.60
2018-07-09T14:25:09.853Z,2.30
2018-07-09T14:27:38.554Z,1.77
2018-07-09T14:30:06.865Z,1.50
2018-07-09T14:32:35.145Z,2.20
2018-07-09T14:35:03.722Z,1.67
2018-07-09T14:37:31.965Z,1.47
2018-07-09T14:40:00.375Z,1.93
2018-07-09T14:42:28.681Z,1.90
2018-07-09T14:44:57.189Z,2.03
2018-07-09T14:47:25.449Z,2.07
2018-07-09T14:49:53.969Z,2.07
2018-07-09T14:52:22.299Z,2.23
2018-07-09T14:54:50.623Z,1.93
2018-07-09T14:57:19.606Z,2.60
2018-07-09T14:59:48.012Z,2.40
2018-07-09T15:02:16.306Z,1.90
2018-07-09T15:04:44.971Z,1.90
2018-07-09T15:07:13.279Z,2.10
2018-07-09T15:09:41.665Z,2.20
2018-07-09T15:12:09.888Z,2.00
2018-07-09T15:14:38.241Z,1.70
2018-07-09T15:17:06.642Z,2.00
2018-07-09T15:19:34.959Z,2.33
2018-07-09T15:22:03.240Z,2.80
2018-07-09T15:24:31.582Z,1.60
2018-07-09T15:26:59.863Z,2.10
2018-07-09T15:29:28.165Z,2.10
2018-07-09T15:32:02.118Z,2.17
2018-07-09T15:34:30.431Z,2.30
2018-07-09T15:36:58.735Z,1.83
2018-07-09T15:39:27.318Z,1.77
2018-07-09T15:41:55.613Z,1.70
2018-07-09T15:44:23.930Z,2.00
2018-07-09T15:46:52.243Z,1.90
2018-07-09T15:49:20.520Z,2.07
2018-07-09T15:51:48.806Z,2.07
2018-07-09T15:54:17.105Z,2.13
2018-07-09T15:56:45.406Z,1.73
2018-07-09T15:59:13.734Z,2.60
2018-07-09T16:01:42.009Z,1.90
2018-07-09T16:04:10.277Z,2.00
2018-07-09T16:06:38.590Z,1.87
2018-07-09T16:09:07.050Z,2.00
2018-07-09T16:11:35.677Z,1.70
2018-07-09T16:14:03.961Z,1.97
2018-07-09T16:16:32.286Z,1.57
2018-07-09T16:19:00.562Z,2.30
2018-07-09T16:21:28.872Z,2.33
2018-07-09T16:23:57.153Z,1.67
2018-07-09T16:26:25.470Z,2.43
2018-07-09T16:28:53.819Z,1.80
2018-07-09T16:31:22.101Z,1.93
2018-07-09T16:33:50.367Z,2.10
2018-07-09T16:36:18.687Z,1.93
2018-07-09T16:38:46.989Z,2.50
2018-07-09T16:41:15.334Z,1.80
2018-07-09T16:43:43.645Z,1.77
2018-07-09T16:46:11.970Z,1.90
2018-07-09T16:48:40.273Z,1.67
2018-07-09T16:51:08.603Z,2.23
2018-07-09T16:53:36.907Z,1.90
2018-07-09T16:56:05.511Z,1.87
2018-07-09T16:58:33.824Z,1.53
2018-07-09T17:01:02.162Z,2.03
2018-07-09T17:03:30.475Z,2.33
2018-07-09T17:05:58.805Z,1.77
2018-07-09T17:08:27.084Z,2.03
2018-07-09T17:10:55.409Z,2.47
2018-07-09T17:13:23.693Z,1.80
2018-07-09T17:15:52.007Z,2.00
2018-07-09T17:18:20.290Z,2.33
2018-07-09T17:20:48.613Z,1.73
2018-07-09T17:23:16.900Z,1.83
2018-07-09T17:25:45.184Z,1.93
2018-07-09T17:28:13.487Z,1.83
2018-07-09T17:30:41.780Z,2.13
2018-07-09T17:33:10.075Z,2.07
2018-07-09T17:35:38.353Z,2.20
2018-07-09T17:38:12.940Z,1.73
2018-07-09T17:40:41.226Z,1.87
2018-07-09T17:43:09.522Z,2.10
2018-07-09T17:45:37.812Z,2.20
2018-07-09T17:48:06.130Z,1.80
2018-07-09T17:50:34.422Z,1.40
2018-07-09T17:53:02.735Z,1.60
2018-07-09T17:55:31.026Z,1.70
2018-07-09T17:57:59.353Z,2.07
2018-07-09T18:00:27.703Z,1.63
2018-07-09T18:02:57.964Z,2.20
2018-07-09T18:05:26.294Z,2.10
2018-07-09T18:07:55.997Z,2.10
2018-07-09T18:10:24.302Z,2.00
2018-07-09T18:12:52.724Z,2.40
2018-07-09T18:15:21.010Z,2.00
2018-07-09T18:17:51.805Z,1.90
2018-07-09T18:20:20.164Z,1.93
2018-07-09T18:22:48.514Z,2.13
2018-07-09T18:25:17.740Z,2.20
2018-07-09T18:27:46.217Z,1.70
2018-07-09T18:30:15.024Z,1.90
2018-07-09T18:32:43.350Z,2.00
2018-07-09T18:35:12.833Z,1.87
2018-07-09T18:37:42.074Z,1.57
2018-07-09T18:40:10.350Z,2.10
2018-07-09T18:42:38.757Z,1.97
2018-07-09T18:45:07.165Z,1.73
2018-07-09T18:47:35.485Z,1.90
2018-07-09T18:50:03.893Z,1.80
2018-07-09T18:52:32.246Z,1.83
2018-07-09T18:55:00.589Z,1.53
2018-07-09T18:57:28.939Z,1.90
2018-07-09T18:59:57.256Z,2.00
2018-07-09T19:02:25.650Z,1.67
2018-07-09T19:04:53.966Z,1.70
2018-07-09T19:07:36.242Z,1.60
2018-07-09T19:10:04.571Z,1.90
2018-07-09T19:12:32.964Z,1.80
2018-07-09T19:15:01.251Z,2.03
2018-07-09T19:18:02.383Z,1.70
2018-07-09T19:20:36.983Z,2.17
2018-07-09T19:23:05.904Z,2.00
2018-07-09T19:25:34.498Z,2.63
2018-07-09T19:28:03.022Z,2.20
2018-07-09T19:30:30.712Z,2.63
2018-07-09T19:32:58.433Z,2.23
2018-07-09T19:35:26.180Z,2.40
2018-07-09T19:37:54.339Z,2.03
2018-07-09T19:40:21.840Z,2.13
2018-07-09T19:42:49.529Z,3.47
2018-07-09T19:45:17.251Z,2.10
2018-07-09T19:47:44.966Z,1.93
2018-07-09T19:50:12.708Z,2.10
2018-07-09T19:52:40.415Z,2.50
2018-07-09T19:55:08.163Z,2.37
2018-07-09T19:57:35.868Z,2.53
2018-07-09T20:00:03.598Z,2.33
2018-07-09T20:02:31.353Z,2.30
2018-07-09T20:04:59.151Z,2.50
2018-07-09T20:07:26.818Z,2.20
2018-07-09T20:09:59.979Z,2.50
2018-07-09T20:12:33.070Z,2.27
2018-07-09T20:15:06.135Z,2.37
2018-07-09T20:17:35.555Z,2.30
2018-07-09T20:20:03.275Z,2.30
2018-07-09T20:22:30.970Z,2.23
2018-07-09T20:24:58.695Z,2.70
2018-07-09T20:27:26.386Z,2.47
2018-07-09T20:29:54.123Z,2.87
2018-07-09T20:32:21.990Z,2.70
2018-07-09T20:34:49.741Z,2.77
2018-07-09T20:37:17.462Z,2.70
2018-07-09T20:39:45.177Z,2.40
2018-07-09T20:42:12.875Z,2.53
2018-07-09T20:44:40.598Z,2.40
2018-07-09T20:47:08.322Z,2.30
2018-07-09T20:49:36.041Z,2.47
2018-07-09T20:52:03.777Z,2.20
2018-07-09T20:54:31.566Z,2.57
2018-07-09T20:56:59.278Z,2.53
2018-07-09T20:59:27.023Z,2.90
2018-07-09T21:01:54.725Z,2.30
2018-07-09T21:04:27.349Z,2.73
2018-07-09T21:06:56.538Z,3.10
2018-07-09T21:09:24.788Z,3.07
2018-07-09T21:11:52.754Z,2.40
2018-07-09T21:14:20.484Z,2.47
2018-07-09T21:16:48.214Z,2.50
2018-07-09T21:19:15.914Z,3.33
2018-07-09T21:21:43.692Z,3.00
2018-07-09T21:24:11.409Z,2.77
2018-07-09T21:26:39.135Z,2.83
2018-07-09T21:29:06.834Z,2.77
2018-07-09T21:31:34.786Z,2.13
2018-07-09T21:34:02.538Z,3.33
2018-07-09T21:36:30.241Z,2.53
2018-07-09T21:38:57.938Z,3.00
2018-07-09T21:41:25.664Z,2.63
2018-07-09T21:43:53.357Z,2.80
2018-07-09T21:46:21.462Z,3.53
2018-07-09T21:48:49.198Z,2.07
2018-07-09T21:51:16.925Z,2.13
2018-07-09T21:53:44.641Z,2.80
2018-07-09T21:56:12.381Z,2.57
2018-07-09T21:58:40.083Z,2.57
2018-07-09T22:01:07.866Z,2.70
2018-07-09T22:03:35.681Z,2.50
2018-07-09T22:06:03.418Z,2.80
2018-07-09T22:08:31.109Z,2.43
2018-07-09T22:10:59.222Z,2.77
2018-07-09T22:13:26.941Z,2.07
2018-07-09T22:15:54.638Z,2.70
2018-07-09T22:18:22.373Z,2.10
2018-07-09T22:20:50.066Z,2.23
2018-07-09T22:23:17.784Z,2.23
2018-07-09T22:25:45.478Z,2.40
2018-07-09T22:28:13.206Z,2.70
2018-07-09T22:30:41.518Z,2.03
2018-07-09T22:33:09.801Z,2.40
2018-07-09T22:35:38.073Z,2.23
2018-07-09T22:38:06.405Z,2.07
2018-07-09T22:40:34.714Z,2.50
2018-07-09T22:45:11.933Z,1.93
2018-07-09T22:47:40.446Z,2.00
2018-07-09T22:50:08.734Z,2.47
2018-07-09T22:52:37.031Z,2.17
2018-07-09T22:55:10.912Z,2.60
2018-07-09T22:57:39.209Z,2.20
2018-07-09T23:00:07.510Z,2.10
2018-07-09T23:02:35.793Z,2.50
2018-07-09T23:05:04.236Z,2.20
2018-07-09T23:07:35.482Z,1.57
2018-07-09T23:10:09.334Z,2.63
2018-07-09T23:13:15.152Z,2.13
2018-07-09T23:15:49.115Z,1.97
2018-07-09T23:18:22.962Z,1.90
2018-07-09T23:20:56.837Z,2.60
2018-07-09T23:23:24.565Z,2.70
2018-07-09T23:25:52.258Z,2.30
2018-07-09T23:28:19.992Z,2.70
2018-07-09T23:30:47.701Z,2.30
2018-07-09T23:33:15.433Z,1.73
2018-07-09T23:35:43.144Z,2.10
2018-07-09T23:38:10.875Z,2.30
2018-07-09T23:40:38.569Z,2.40
2018-07-09T23:43:06.307Z,2.90
2018-07-09T23:45:33.998Z,2.33
2018-07-09T23:48:01.730Z,2.23
2018-07-09T23:50:29.442Z,2.70
2018-07-09T23:52:58.820Z,2.10
2018-07-09T23:55:27.125Z,2.43
